Time;durP1;ratioP1;P1;durP2;ratioP2;P2;SDS_P1;SDS_P2;PMS_P1;PMS_P2;Temp;Humidity;BMP_temperature;BMP_pressure;BME280_temperature;BME280_humidity;BME280_pressure;Samples;Min_cycle;Max_cycle;Signal;HPM_P1;HPM_P2
2021/12/04 00:01:10;;;;;;;27.38;12.18;;;;;;;;;;5021046;28;20049;-78
2021/12/04 00:03:36;;;;;;;29.70;15.50;;;;;;;;;;5022534;28;20514;-79
2021/12/04 00:06:08;;;;;;;46.08;15.75;;;;;;;;;;5018692;28;20617;-78
2021/12/04 00:08:35;;;;;;;39.40;15.88;;;;;;;;;;4998179;28;20091;-78
2021/12/04 00:11:03;;;;;;;40.72;14.75;;;;;;;;;;5019836;28;20042;-78
2021/12/04 00:13:29;;;;;;;38.00;14.43;;;;;;;;;;5023673;28;20155;-78
2021/12/04 00:15:55;;;;;;;29.58;14.32;;;;;;;;;;5006587;28;20691;-78
2021/12/04 00:18:22;;;;;;;35.95;14.63;;;;;;;;;;5018718;28;20049;-78
2021/12/04 00:20:49;;;;;;;65.03;17.50;;;;;;;;;;5018979;28;20052;-79
2021/12/04 00:23:15;;;;;;;41.88;13.40;;;;;;;;;;5022393;28;20576;-78
2021/12/04 00:25:41;;;;;;;37.17;16.23;;;;;;;;;;5005101;28;20079;-79
2021/12/04 00:28:07;;;;;;;34.00;16.00;;;;;;;;;;4994764;28;20051;-78
2021/12/04 00:30:34;;;;;;;40.03;12.68;;;;;;;;;;4984781;28;20042;-78
2021/12/04 00:33:04;;;;;;;30.20;14.77;;;;;;;;;;5003175;28;20431;-78
2021/12/04 00:49:11;;;;;;;34.22;16.95;;;;;;;;;;4979527;28;20156;-78
2021/12/04 00:51:39;;;;;;;30.65;14.07;;;;;;;;;;4985717;28;20038;-79
2021/12/04 00:54:09;;;;;;;35.33;16.45;;;;;;;;;;4985898;28;20126;-78
2021/12/04 00:56:35;;;;;;;29.02;13.70;;;;;;;;;;5001509;28;20081;-78
2021/12/04 00:59:02;;;;;;;50.05;16.70;;;;;;;;;;4997503;28;20042;-78
2021/12/04 01:01:28;;;;;;;53.83;16.48;;;;;;;;;;4994704;28;20042;-79
2021/12/04 01:03:55;;;;;;;28.90;12.73;;;;;;;;;;4996225;28;20515;-78
2021/12/04 01:06:21;;;;;;;43.33;14.07;;;;;;;;;;5001843;28;20042;-78
2021/12/04 01:08:48;;;;;;;37.67;15.90;;;;;;;;;;5000430;28;20041;-78
2021/12/04 01:11:14;;;;;;;35.05;17.05;;;5.10;99.90;;;;;;4999482;28;20112;-79
2021/12/04 01:13:40;;;;;;;36.80;17.88;;;;;;;;;;4999760;28;20040;-79
2021/12/04 01:16:06;;;;;;;63.63;14.82;;;;;;;;;;5002323;28;20049;-79
2021/12/04 01:18:33;;;;;;;32.38;15.23;;;;;;;;;;5001250;28;20091;-78
2021/12/04 01:20:59;;;;;;;30.77;16.02;;;;;;;;;;4982680;28;20514;-78
2021/12/04 01:23:25;;;;;;;47.75;14.40;;;;;;;;;;5001470;28;20469;-79
2021/12/04 01:25:52;;;;;;;58.78;12.15;;;5.10;99.90;;;;;;5000996;28;20068;-78
2021/12/04 01:28:18;;;;;;;33.30;12.65;;;;;;;;;;4994877;28;20131;-78
2021/12/04 01:30:44;;;;;;;45.22;16.70;;;;;;;;;;5002868;28;20049;-78
2021/12/04 01:33:10;;;;;;;30.70;15.35;;;;;;;;;;5000197;28;20049;-78
2021/12/04 01:35:37;;;;;;;51.95;15.15;;;;;;;;;;5004539;28;20521;-78
2021/12/04 01:38:04;;;;;;;48.28;15.57;;;;;;;;;;5002911;28;20132;-79
2021/12/04 01:40:30;;;;;;;55.67;13.77;;;4.80;99.90;;;;;;4996765;28;20665;-79
2021/12/04 01:42:56;;;;;;;78.18;16.88;;;;;;;;;;4985465;28;20478;-78
2021/12/04 01:45:22;;;;;;;49.10;13.57;;;;;;;;;;5007294;28;20409;-78
2021/12/04 01:47:48;;;;;;;55.92;13.80;;;;;;;;;;4999750;28;20457;-79
2021/12/04 01:50:15;;;;;;;40.58;14.13;;;;;;;;;;5003411;28;20042;-78
2021/12/04 01:52:41;;;;;;;38.63;13.13;;;;;;;;;;4998301;28;20092;-79
2021/12/04 01:55:08;;;;;;;35.28;16.83;;;;;;;;;;5004668;28;20052;-79
2021/12/04 01:57:35;;;;;;;120.32;17.27;;;;;;;;;;5007273;28;20108;-78
2021/12/04 02:00:03;;;;;;;108.20;16.73;;;;;;;;;;5004491;28;20042;-79
2021/12/04 02:02:29;;;;;;;29.55;10.30;;;;;;;;;;4999288;28;20050;-78
2021/12/04 02:04:56;;;;;;;41.20;14.32;;;;;;;;;;5005849;28;20048;-79
2021/12/04 02:07:22;;;;;;;66.28;14.20;;;;;;;;;;5007440;28;20173;-79
2021/12/04 02:09:48;;;;;;;30.20;15.30;;;;;;;;;;5007034;28;20049;-78
2021/12/04 02:12:15;;;;;;;66.82;16.98;;;;;;;;;;4983465;28;20053;-79
2021/12/04 02:14:42;;;;;;;30.27;16.10;;;;;;;;;;5006019;28;20072;-79
2021/12/04 02:17:09;;;;;;;29.30;12.13;;;5.10;99.90;;;;;;4992577;28;20531;-78
2021/12/04 02:19:35;;;;;;;59.22;11.02;;;;;;;;;;4996634;28;20078;-78
2021/12/04 02:22:02;;;;;;;76.25;13.38;;;;;;;;;;5005146;28;20459;-78
2021/12/04 02:24:28;;;;;;;48.83;12.93;;;;;;;;;;5006197;28;20033;-79
2021/12/04 02:26:55;;;;;;;33.33;17.15;;;;;;;;;;5000184;28;20163;-79
2021/12/04 02:29:21;;;;;;;42.92;13.80;;;;;;;;;;5001873;28;20049;-79
2021/12/04 02:31:52;;;;;;;111.97;19.27;;;4.90;99.90;;;;;;5021440;28;20049;-79
2021/12/04 02:34:22;;;;;;;27.77;11.80;;;;;;;;;;5018223;28;20041;-80
2021/12/04 02:36:48;;;;;;;107.03;17.83;;;;;;;;;;5020952;28;20504;-79
2021/12/04 02:39:23;;;;;;;51.97;13.73;;;;;;;;;;5007080;28;20132;-79
2021/12/04 02:41:49;;;;;;;188.40;20.38;;;;;;;;;;5022835;28;20709;-79
2021/12/04 02:44:15;;;;;;;29.00;15.05;;;;;;;;;;5008601;28;20034;-80
2021/12/04 02:46:41;;;;;;;31.20;14.98;;;;;;;;;;5018463;28;20068;-79
2021/12/04 02:49:09;;;;;;;46.08;14.27;;;;;;;;;;5021047;28;20049;-79
2021/12/04 02:51:36;;;;;;;26.40;12.13;;;;;;;;;;5018011;28;20503;-80
2021/12/04 02:54:02;;;;;;;53.28;14.48;;;;;;;;;;5022266;28;20077;-80
2021/12/04 02:56:28;;;;;;;61.08;12.98;;;;;;;;;;5008457;28;20518;-79
2021/12/04 02:59:01;;;;;;;27.85;12.82;;;;;;;;;;5023562;28;20553;-79
2021/12/04 03:01:27;;;;;;;37.97;18.85;;;;;;;;;;5020407;28;20071;-80
2021/12/04 03:04:04;;;;;;;34.45;15.10;;;;;;;;;;5007032;28;20483;-80
2021/12/04 03:06:31;;;;;;;137.55;21.77;;;;;;;;;;5023462;28;20412;-79
2021/12/04 03:08:57;;;;;;;43.53;11.05;;;;;;;;;;5025727;28;20037;-80
2021/12/04 03:11:23;;;;;;;29.13;15.70;;;;;;;;;;5028058;28;20080;-80
2021/12/04 03:13:49;;;;;;;56.00;15.40;;;;;;;;;;5022272;28;20041;-80
2021/12/04 03:16:16;;;;;;;83.90;16.58;;;;;;;;;;5017972;28;20038;-80
2021/12/04 03:18:42;;;;;;;81.10;13.98;;;;;;;;;;5022906;28;20038;-80
2021/12/04 03:21:09;;;;;;;43.10;16.38;;;;;;;;;;5013494;28;20060;-79
2021/12/04 03:23:51;;;;;;;74.15;18.33;;;;;;;;;;5017252;28;20045;-79
2021/12/04 03:26:17;;;;;;;55.88;18.85;;;4.60;99.90;;;;;;5021632;28;20049;-79
2021/12/04 03:28:44;;;;;;;32.40;14.70;;;;;;;;;;5009676;28;20061;-80
2021/12/04 03:31:16;;;;;;;51.88;16.67;;;;;;;;;;5003988;28;20113;-79
2021/12/04 03:41:57;;;;;;;63.17;16.13;;;;;;;;;;5036335;28;20215;-79
2021/12/04 03:44:23;;;;;;;74.35;16.50;;;;;;;;;;5002833;28;20048;-79
2021/12/04 03:46:50;;;;;;;56.38;17.50;;;;;;;;;;5001282;28;20062;-79
2021/12/04 03:49:16;;;;;;;58.20;11.57;;;;;;;;;;5002895;28;20053;-79
2021/12/04 03:51:42;;;;;;;88.13;16.60;;;;;;;;;;4995561;28;20132;-79
2021/12/04 03:54:09;;;;;;;38.58;11.65;;;;;;;;;;5013508;28;20153;-79
2021/12/04 03:56:36;;;;;;;58.47;11.05;;;;;;;;;;5003402;28;20048;-79
2021/12/04 03:59:03;;;;;;;43.65;13.52;;;4.70;99.90;;;;;;4987662;28;20073;-79
2021/12/04 04:01:30;;;;;;;53.33;15.10;;;;;;;;;;4987281;28;20573;-79
2021/12/04 04:03:56;;;;;;;33.33;16.52;;;;;;;;;;5002558;28;20038;-79
2021/12/04 04:06:22;;;;;;;48.90;10.07;;;;;;;;;;5004075;28;20604;-79
2021/12/04 04:08:48;;;;;;;22.52;9.73;;;;;;;;;;5002389;28;20486;-79
2021/12/04 04:11:15;;;;;;;25.02;10.65;;;;;;;;;;4991571;28;20077;-79
2021/12/04 04:13:43;;;;;;;28.20;12.80;;;;;;;;;;5002756;28;20049;-80
2021/12/04 04:16:10;;;;;;;35.78;16.95;;;;;;;;;;4983781;28;20053;-80
2021/12/04 04:18:37;;;;;;;29.00;15.13;;;;;;;;;;5000971;28;20128;-79
2021/12/04 04:21:03;;;;;;;33.08;17.80;;;4.60;99.90;;;;;;5003236;28;20066;-80
2021/12/04 04:23:30;;;;;;;30.83;16.00;;;;;;;;;;5002104;28;20426;-80
2021/12/04 04:25:56;;;;;;;30.23;16.35;;;;;;;;;;5004104;28;20045;-80
2021/12/04 04:28:22;;;;;;;29.67;15.32;;;;;;;;;;5010909;28;20058;-80
2021/12/04 04:30:48;;;;;;;28.77;13.15;;;4.70;99.90;;;;;;5004388;28;20046;-80
2021/12/04 04:33:15;;;;;;;29.73;12.63;;;;;;;;;;5019082;28;20052;-80
2021/12/04 04:35:45;;;;;;;30.60;11.73;;;;;;;;;;4998605;28;20047;-79
2021/12/04 04:38:26;;;;;;;27.02;14.88;;;4.70;99.90;;;;;;5013800;28;20120;-79
2021/12/04 04:57:36;;;;;;;26.80;13.53;;;;;;;;;;5011919;28;20050;-79
2021/12/04 05:00:15;;;;;;;46.05;12.30;;;;;;;;;;5020599;28;20525;-80
2021/12/04 05:13:18;;;;;;;28.95;14.23;;;;;;;;;;5022289;28;20049;-80
2021/12/04 05:15:57;;;;;;;27.02;15.38;;;4.70;99.90;;;;;;5014924;28;20707;-79
2021/12/04 05:21:03;;;;;;;25.58;14.55;;;;;;;;;;5019864;28;20771;-80
2021/12/04 05:23:29;;;;;;;29.13;13.55;;;;;;;;;;5014322;28;20495;-80
2021/12/04 05:25:56;;;;;;;45.33;12.85;;;;;;;;;;5009538;28;20042;-80
2021/12/04 05:28:22;;;;;;;30.63;14.18;;;;;;;;;;5011131;28;20547;-80
2021/12/04 05:30:49;;;;;;;32.58;9.65;;;4.80;99.90;;;;;;5020870;28;20787;-80
2021/12/04 05:33:16;;;;;;;14.23;6.38;;;4.80;99.90;;;;;;4997813;28;20053;-80
2021/12/04 05:35:47;;;;;;;51.47;11.95;;;;;;;;;;5016430;28;20064;-79
2021/12/04 05:38:13;;;;;;;120.15;13.75;;;;;;;;;;5019722;28;20478;-79
2021/12/04 05:40:39;;;;;;;41.13;10.65;;;;;;;;;;5016395;28;20360;-80
2021/12/04 05:43:06;;;;;;;38.10;9.02;;;;;;;;;;5012439;28;20426;-79
2021/12/04 05:45:38;;;;;;;24.02;12.23;;;;;;;;;;4999822;28;20038;-79
2021/12/04 05:53:21;;;;;;;30.58;14.65;;;;;;;;;;5018569;28;20080;-79
2021/12/04 05:55:57;;;;;;;23.30;12.48;;;;;;;;;;5019986;28;20415;-80
2021/12/04 05:58:25;;;;;;;22.35;11.70;;;;;;;;;;5018974;28;20041;-79
2021/12/04 06:00:52;;;;;;;27.58;12.63;;;;;;;;;;5021346;28;20041;-79
2021/12/04 06:03:19;;;;;;;22.05;10.55;;;;;;;;;;5002908;28;20116;-79
2021/12/04 06:05:45;;;;;;;24.40;13.52;;;;;;;;;;5004701;28;20104;-79
2021/12/04 06:08:12;;;;;;;24.65;13.18;;;;;;;;;;5017417;28;20060;-79
2021/12/04 06:10:38;;;;;;;25.20;13.27;;;;;;;;;;5004822;28;20406;-79
2021/12/04 06:13:04;;;;;;;24.15;12.18;;;;;;;;;;4994796;28;20767;-79
2021/12/04 06:15:30;;;;;;;35.75;13.85;;;;;;;;;;5022180;28;20533;-78
2021/12/04 06:17:56;;;;;;;35.97;11.85;;;;;;;;;;5005087;28;20060;-78
2021/12/04 06:23:08;;;;;;;25.08;12.02;;;;;;;;;;5011963;28;20041;-78
2021/12/04 06:25:34;;;;;;;28.88;11.98;;;4.70;99.90;;;;;;5017298;28;20091;-78
2021/12/04 06:28:01;;;;;;;25.30;12.60;;;;;;;;;;5020742;28;20132;-78
2021/12/04 06:30:27;;;;;;;18.73;9.38;;;;;;;;;;5016607;28;20049;-78
2021/12/04 06:32:55;;;;;;;24.67;14.68;;;;;;;;;;5005427;28;20044;-79
2021/12/04 06:35:23;;;;;;;20.85;11.50;;;4.70;99.90;;;;;;5013090;28;20554;-78
2021/12/04 06:37:50;;;;;;;42.15;13.15;;;;;;;;;;5018693;28;20589;-79
2021/12/04 06:40:18;;;;;;;25.33;13.63;;;;;;;;;;5003544;28;20391;-78
2021/12/04 06:42:45;;;;;;;23.75;13.35;;;;;;;;;;5020251;28;20046;-79
2021/12/04 06:45:12;;;;;;;26.58;12.90;;;;;;;;;;5018762;28;20415;-79
2021/12/04 06:47:44;;;;;;;25.13;13.85;;;;;;;;;;5021687;28;20042;-79
2021/12/04 06:50:18;;;;;;;21.05;10.35;;;;;;;;;;5022155;28;20086;-78
2021/12/04 06:52:47;;;;;;;26.55;13.30;;;;;;;;;;5033393;28;20044;-79
2021/12/04 06:55:15;;;;;;;21.15;12.80;;;;;;;;;;5023454;28;20063;-79
2021/12/04 06:57:43;;;;;;;38.95;10.40;;;;;;;;;;5022882;28;20593;-79
2021/12/04 07:00:11;;;;;;;26.05;10.77;;;;;;;;;;5019673;28;20067;-79
2021/12/04 07:02:37;;;;;;;26.23;12.77;;;;;;;;;;5021342;28;20584;-79
2021/12/04 07:05:04;;;;;;;23.52;11.50;;;;;;;;;;5033127;28;20041;-80
2021/12/04 07:07:30;;;;;;;32.97;13.88;;;;;;;;;;5020855;28;20044;-79
2021/12/04 07:09:57;;;;;;;31.17;9.57;;;;;;;;;;5001069;28;20128;-80
2021/12/04 07:12:23;;;;;;;23.30;11.50;;;;;;;;;;5013800;28;20065;-79
2021/12/04 07:14:49;;;;;;;21.98;9.30;;;4.90;99.90;;;;;;5021682;28;20076;-80
2021/12/04 07:17:15;;;;;;;19.75;10.38;;;4.50;99.90;;;;;;5024747;28;20095;-79
2021/12/04 07:19:41;;;;;;;25.25;13.07;;;;;;;;;;5015587;28;20033;-79
2021/12/04 07:22:08;;;;;;;19.27;10.27;;;;;;;;;;5011547;28;20661;-79
2021/12/04 07:24:34;;;;;;;19.92;10.75;;;;;;;;;;5017579;28;20056;-80
2021/12/04 07:27:01;;;;;;;28.25;11.52;;;;;;;;;;5007354;28;20045;-80
2021/12/04 07:29:27;;;;;;;20.73;10.75;;;;;;;;;;5007168;28;20054;-80
2021/12/04 07:31:53;;;;;;;25.42;11.95;;;;;;;;;;5008021;28;20041;-80
2021/12/04 07:34:19;;;;;;;21.35;10.80;;;;;;;;;;5023187;28;20048;-82
2021/12/04 07:36:45;;;;;;;27.17;11.63;;;;;;;;;;5014235;28;20079;-79
2021/12/04 07:39:11;;;;;;;27.33;12.35;;;;;;;;;;5005599;28;20041;-80
2021/12/04 07:41:42;;;;;;;22.92;8.13;;;;;;;;;;5020412;28;20049;-80
2021/12/04 07:44:10;;;;;;;27.17;13.18;;;;;;;;;;5017401;28;20584;-81
2021/12/04 07:46:37;;;;;;;16.52;8.15;;;;;;;;;;5015199;28;20037;-80
2021/12/04 07:49:03;;;;;;;55.15;14.63;;;;;;;;;;5000231;28;20037;-80
2021/12/04 07:51:30;;;;;;;39.40;11.32;;;;;;;;;;5017064;28;20632;-80
2021/12/04 07:53:56;;;;;;;27.38;13.55;;;;;;;;;;5013477;28;20588;-80
2021/12/04 07:56:22;;;;;;;29.70;14.15;;;;;;;;;;5015688;28;20053;-80
2021/12/04 07:58:49;;;;;;;25.95;12.48;;;;;;;;;;4999717;28;20045;-80
2021/12/04 08:01:15;;;;;;;29.65;14.02;;;;;;;;;;4993468;28;20041;-80
2021/12/04 08:03:42;;;;;;;24.63;11.60;;;;;;;;;;5017308;28;20042;-80
2021/12/04 08:06:08;;;;;;;29.05;13.77;;;;;;;;;;5020294;28;20095;-80
2021/12/04 08:08:34;;;;;;;30.58;14.13;;;;;;;;;;5017781;28;20038;-80
2021/12/04 08:11:02;;;;;;;30.00;13.57;;;;;;;;;;5011376;28;20700;-80
2021/12/04 08:13:28;;;;;;;38.20;12.57;;;;;;;;;;5014426;28;20049;-80
2021/12/04 08:15:54;;;;;;;33.33;13.98;;;;;;;;;;5019492;28;20084;-80
2021/12/04 08:18:21;;;;;;;32.83;16.58;;;;;;;;;;5018571;28;20063;-80
2021/12/04 08:20:48;;;;;;;29.65;12.68;;;;;;;;;;5016299;28;20049;-80
2021/12/04 08:23:14;;;;;;;35.38;13.18;;;;;;;;;;5017449;28;20044;-80
2021/12/04 08:25:40;;;;;;;32.20;12.90;;;;;;;;;;5005824;28;20677;-80
2021/12/04 08:28:07;;;;;;;29.25;14.70;;;;;;;;;;5017368;28;20162;-79
2021/12/04 08:30:36;;;;;;;28.00;14.52;;;;;;;;;;5018570;28;20048;-79
2021/12/04 08:33:03;;;;;;;27.63;15.00;;;;;;;;;;5003417;28;20179;-80
2021/12/04 08:35:31;;;;;;;25.20;10.63;;;;;;;;;;5012000;28;20329;-80
2021/12/04 08:37:58;;;;;;;26.50;10.15;;;;;;;;;;5013293;28;20049;-81
2021/12/04 08:40:28;;;;;;;26.35;12.50;;;;;;;;;;5003842;28;20133;-82
2021/12/04 08:42:55;;;;;;;27.05;12.68;;;;;;;;;;4998261;28;20087;-81
2021/12/04 08:45:22;;;;;;;35.60;11.35;;;;;;;;;;5021020;28;20051;-80
2021/12/04 08:47:48;;;;;;;29.55;14.32;;;;;;;;;;5003821;28;20069;-81
2021/12/04 08:50:19;;;;;;;34.58;14.55;;;;;;;;;;5020251;28;20045;-80
2021/12/04 08:52:46;;;;;;;24.63;11.40;;;;;;;;;;5013427;28;20045;-79
2021/12/04 08:55:13;;;;;;;28.30;13.75;;;;;;;;;;5020010;28;20045;-79
2021/12/04 08:57:40;;;;;;;24.13;12.40;;;;;;;;;;5018073;28;20095;-79
2021/12/04 09:00:08;;;;;;;25.08;11.73;;;;;;;;;;5004065;28;20041;-79
2021/12/04 09:02:34;;;;;;;23.77;10.68;;;;;;;;;;5008141;28;20366;-79
2021/12/04 09:05:00;;;;;;;27.55;13.68;;;;;;;;;;5016757;28;20057;-79
2021/12/04 09:07:27;;;;;;;23.10;10.50;;;;;;;;;;5014293;28;20037;-79
2021/12/04 09:09:55;;;;;;;20.58;11.35;;;;;;;;;;5002899;28;20393;-79
2021/12/04 09:12:24;;;;;;;26.30;12.55;;;;;;;;;;5015601;28;20637;-79
2021/12/04 09:14:50;;;;;;;22.92;11.90;;;;;;;;;;5020274;28;20057;-79
2021/12/04 09:17:18;;;;;;;25.40;12.82;;;;;;;;;;5016819;28;20482;-79
2021/12/04 09:19:44;;;;;;;27.55;13.35;;;5.00;99.90;;;;;;5020122;28;20041;-81
2021/12/04 09:22:35;;;;;;;25.08;12.95;;;;;;;;;;5018577;28;20121;-81
2021/12/04 09:25:00;;;;;;;27.15;12.07;;;;;;;;;;5018243;28;20054;-82
2021/12/04 09:33:42;;;;;;;29.20;13.65;;;4.80;99.90;;;;;;5018723;28;20042;-81
2021/12/04 10:11:50;;;;;;;23.65;12.00;;;;;;;;;;5012034;28;20053;-80
2021/12/04 10:32:25;;;;;;;24.77;11.77;;;;;;;;;;5039225;28;20791;-80
2021/12/04 10:34:48;;;;;;;27.50;12.18;;;;;;;;;;5015782;28;20517;-79
2021/12/04 10:37:24;;;;;;;28.52;11.20;;;;;;;;;;5004578;28;20045;-80
2021/12/04 10:39:55;;;;;;;25.60;12.25;;;;;;;;;;5017757;28;20577;-80
2021/12/04 10:42:25;;;;;;;27.70;12.25;;;;;;;;;;5022806;28;20759;-81
2021/12/04 10:44:52;;;;;;;28.67;13.05;;;;;;;;;;5003433;28;20041;-78
2021/12/04 10:47:26;;;;;;;25.55;12.98;;;;;;;;;;5020041;28;20148;-80
2021/12/04 10:53:03;;;;;;;26.92;11.80;;;;;;;;;;5018543;28;20045;-80
2021/12/04 10:55:45;;;;;;;22.90;11.55;;;;;;;;;;5021703;28;20045;-80
2021/12/04 11:03:23;;;;;;;24.90;13.43;;;;;;;;;;5026509;28;20056;-80
2021/12/04 11:38:26;;;;;;;25.38;12.35;;;;;;;;;;5024025;28;20047;-80
2021/12/04 11:43:48;;;;;;;18.10;10.95;;;;;;;;;;5026124;28;20661;-80
2021/12/04 11:46:27;;;;;;;23.60;11.65;;;;;;;;;;5025794;28;20037;-79
2021/12/04 11:48:56;;;;;;;22.48;11.38;;;;;;;;;;5024191;28;20456;-81
2021/12/04 11:51:24;;;;;;;20.20;12.00;;;;;;;;;;5022557;28;20098;-81
2021/12/04 11:53:51;;;;;;;22.85;11.68;;;;;;;;;;5020111;28;20351;-81
2021/12/04 11:56:23;;;;;;;22.10;10.95;;;4.80;99.90;;;;;;5027352;28;20123;-82
2021/12/04 11:58:50;;;;;;;25.45;11.65;;;;;;;;;;5012218;28;20037;-81
2021/12/04 12:01:28;;;;;;;21.10;9.27;;;;;;;;;;5019572;28;20150;-81
2021/12/04 12:03:56;;;;;;;22.88;10.60;;;;;;;;;;5024057;28;20163;-81
2021/12/04 12:06:39;;;;;;;20.90;10.43;;;;;;;;;;5028264;28;20120;-81
2021/12/04 12:09:15;;;;;;;21.80;10.13;;;;;;;;;;5015125;28;20123;-81
2021/12/04 12:11:41;;;;;;;;;;;;;;;;;;5011720;28;20123;-81
2021/12/04 12:38:11;;;;;;;37.15;15.80;;;;;;;;;;5079391;27;20405;-87
2021/12/04 12:40:37;;;;;;;30.15;14.57;;;;;;;;;;5071108;28;20044;-89
2021/12/04 12:43:18;;;;;;;31.08;15.25;;;;;;;;;;5073693;28;20081;-87
2021/12/04 12:45:58;;;;;;;20.13;10.63;;;;;;;;;;5071960;28;20033;-90
2021/12/04 12:48:25;;;;;;;25.30;13.70;;;;;;;;;;5069928;28;20043;-92
2021/12/04 12:50:52;;;;;;;30.00;16.02;;;;;;;;;;5084164;28;20086;-93
2021/12/04 12:53:29;;;;;;;27.25;13.85;;;;;;;;;;5064842;28;20048;-89
2021/12/04 12:56:09;;;;;;;24.33;11.20;;;;;;;;;;5093669;28;20366;-90
2021/12/04 12:58:44;;;;;;;24.45;10.80;;;;;;;;;;5065670;28;20087;-90
2021/12/04 13:12:22;;;;;;;25.67;11.18;;;;;;;;;;5118991;28;20169;-90
2021/12/04 13:14:51;;;;;;;21.40;12.20;;;;;;;;;;5090859;28;20108;-91
2021/12/04 13:17:20;;;;;;;19.63;8.68;;;;;;;;;;5074917;28;20035;-89
2021/12/04 13:19:48;;;;;;;28.20;10.20;;;;;;;;;;5096606;28;20204;-91
2021/12/04 13:22:19;;;;;;;24.95;10.27;;;;;;;;;;5074676;28;20045;-90
2021/12/04 13:24:47;;;;;;;23.60;10.88;;;;;;;;;;5092283;28;20419;-89
2021/12/04 13:29:43;;;;;;;19.77;9.30;;;;;;;;;;5095153;28;20223;-90
2021/12/04 13:32:14;;;;;;;22.92;10.25;;;;;;;;;;5092804;28;20040;-88
2021/12/04 13:34:41;;;;;;;24.17;10.90;;;;;;;;;;5077249;28;20032;-90
2021/12/04 13:37:08;;;;;;;14.65;7.10;;;;;;;;;;5075786;28;20091;-91
2021/12/04 13:39:35;;;;;;;21.25;10.15;;;;;;;;;;5080023;28;20075;-89
2021/12/04 13:42:02;;;;;;;22.40;10.25;;;;;;;;;;5075246;28;20043;-89
2021/12/04 13:44:29;;;;;;;26.08;11.50;;;;;;;;;;5066868;28;20215;-91
2021/12/04 13:46:59;;;;;;;19.75;8.35;;;;;;;;;;5067818;28;20036;-89
2021/12/04 13:49:32;;;;;;;21.75;9.05;;;;;;;;;;5057580;28;20355;-90
2021/12/04 13:52:08;;;;;;;8.45;5.03;;;;;;;;;;5090300;28;20618;-90
2021/12/04 13:54:36;;;;;;;17.58;7.05;;;;;;;;;;5078936;28;20139;-88
2021/12/04 13:57:07;;;;;;;12.85;7.45;;;;;;;;;;5065163;28;20045;-89
2021/12/04 13:59:33;;;;;;;19.70;8.70;;;;;;;;;;5086209;28;20314;-89
2021/12/04 14:02:02;;;;;;;16.65;8.25;;;;;;;;;;5100479;28;20041;-88
2021/12/04 14:04:28;;;;;;;23.95;11.60;;;;;;;;;;5048185;28;20033;-87
2021/12/04 14:06:56;;;;;;;16.75;8.30;;;;;;;;;;5046926;28;20060;-87
2021/12/04 14:09:24;;;;;;;15.50;8.55;;;;;;;;;;5079762;28;20075;-88
2021/12/04 14:11:53;;;;;;;20.23;9.15;;;;;;;;;;5050805;28;20048;-87
2021/12/04 14:14:22;;;;;;;21.95;10.85;;;;;;;;;;5063772;28;20036;-90
2021/12/04 14:16:52;;;;;;;16.48;7.82;;;;;;;;;;5061366;28;20164;-88
2021/12/04 14:19:26;;;;;;;15.70;7.10;;;;;;;;;;5056783;28;20111;-90
2021/12/04 14:21:57;;;;;;;25.13;9.95;;;;;;;;;;5077681;28;20044;-88
2021/12/04 14:24:31;;;;;;;25.27;11.73;;;;;;;;;;5059209;28;20112;-91
2021/12/04 14:26:58;;;;;;;16.05;6.68;;;;;;;;;;5068916;28;20096;-88
2021/12/04 14:29:26;;;;;;;22.40;9.80;;;;;;;;;;5062829;28;20328;-90
2021/12/04 14:31:53;;;;;;;19.92;10.05;;;;;;;;;;5066527;28;20032;-90
2021/12/04 14:34:30;;;;;;;24.92;12.77;;;;;;;;;;5059802;28;20081;-89
2021/12/04 14:37:00;;;;;;;21.65;9.73;;;;;;;;;;5085908;28;20049;-90
2021/12/04 14:39:26;;;;;;;25.38;12.38;;;;;;;;;;5086124;28;20047;-93
2021/12/04 14:41:52;;;;;;;19.20;8.52;;;;;;;;;;5085455;28;20032;-89
2021/12/04 14:44:18;;;;;;;21.30;10.25;;;;;;;;;;5077870;28;20041;-89
2021/12/04 14:46:44;;;;;;;19.65;10.68;;;;;;;;;;5086450;28;20113;-88
2021/12/04 14:49:13;;;;;;;25.00;11.95;;;;;;;;;;5063206;28;20262;-89
2021/12/04 14:51:39;;;;;;;20.17;11.45;;;;;;;;;;5058624;28;20045;-89
2021/12/04 14:54:05;;;;;;;26.50;12.82;;;;;;;;;;5062361;28;20107;-88
2021/12/04 14:56:32;;;;;;;25.88;12.45;;;;;;;;;;5060419;28;20066;-88
2021/12/04 14:59:01;;;;;;;23.98;11.20;;;;;;;;;;5060381;28;20072;-88
2021/12/04 15:01:33;;;;;;;25.13;10.68;;;;;;;;;;5076836;28;20028;-91
2021/12/04 15:04:01;;;;;;;25.77;13.38;;;;;;;;;;5062919;28;20044;-90
2021/12/04 15:06:28;;;;;;;18.02;9.60;;;;;;;;;;5061805;28;20072;-91
2021/12/04 15:08:58;;;;;;;26.70;10.25;;;;;;;;;;5043833;28;20041;-88
2021/12/04 15:11:31;;;;;;;22.02;8.32;;;;;;;;;;5089600;28;20089;-89
2021/12/04 15:14:10;;;;;;;26.95;11.57;;;;;;;;;;5048654;28;20037;-88
2021/12/04 15:16:45;;;;;;;23.67;10.43;;;;;;;;;;5089097;28;20040;-87
2021/12/04 15:19:15;;;;;;;21.13;10.95;;;;;;;;;;5065464;28;20090;-88
2021/12/04 15:21:53;;;;;;;20.23;8.43;;;;;;;;;;5081571;28;20056;-90
2021/12/04 15:24:23;;;;;;;22.48;9.48;;;;;;;;;;5054633;28;20044;-88
2021/12/04 15:26:51;;;;;;;23.92;9.90;;;;;;;;;;5088430;28;20286;-85
2021/12/04 15:29:19;;;;;;;28.58;9.73;;;;;;;;;;5074161;28;20037;-86
2021/12/04 15:31:46;;;;;;;20.35;8.45;;;;;;;;;;5066763;28;20203;-86
2021/12/04 15:34:12;;;;;;;23.75;12.32;;;;;;;;;;5055750;28;20041;-87
2021/12/04 15:36:42;;;;;;;29.02;12.48;;;;;;;;;;5059098;28;20060;-88
2021/12/04 15:39:14;;;;;;;19.98;10.13;;;;;;;;;;5060656;28;20041;-86
2021/12/04 15:47:13;;;;;;;24.03;9.73;;;;;;;;;;5086190;28;20040;-86
2021/12/04 15:55:06;;;;;;;22.23;7.68;;;;;;;;;;5078426;28;20069;-85
2021/12/04 15:57:33;;;;;;;24.63;10.85;;;;;;;;;;5062283;28;20086;-87
2021/12/04 16:00:01;;;;;;;18.30;7.80;;;;;;;;;;5074955;28;20047;-88
2021/12/04 16:02:34;;;;;;;24.88;10.18;;;;;;;;;;5072818;28;20078;-92
2021/12/04 16:05:11;;;;;;;24.42;10.77;;;;;;;;;;5077908;28;20064;-86
2021/12/04 16:07:38;;;;;;;17.88;7.50;;;;;;;;;;5055350;28;20080;-87
2021/12/04 16:10:11;;;;;;;42.38;10.57;;;;;;;;;;5091276;28;20116;-87
2021/12/04 16:12:38;;;;;;;21.08;9.82;;;;;;;;;;5081354;28;20043;-87
2021/12/04 16:15:05;;;;;;;22.05;8.30;;;;;;;;;;5104709;28;20397;-88
2021/12/04 16:17:32;;;;;;;19.52;9.40;;;;;;;;;;5059475;28;20041;-87
2021/12/04 16:20:05;;;;;;;46.15;11.00;;;;;;;;;;5073743;28;20087;-89
2021/12/04 16:22:36;;;;;;;20.13;9.48;;;;;;;;;;5056631;28;20397;-87
2021/12/04 16:25:04;;;;;;;26.40;9.88;;;;;;;;;;5058521;28;20048;-89
2021/12/04 16:27:34;;;;;;;22.77;9.75;;;;;;;;;;5063901;28;20033;-87
2021/12/04 16:30:27;;;;;;;21.80;10.27;;;;;;;;;;5057436;28;20044;-86
2021/12/04 16:33:00;;;;;;;47.15;10.27;;;;;;;;;;5092315;28;20082;-90
2021/12/04 16:38:00;;;;;;;27.88;11.45;;;;;;;;;;5061736;28;20127;-88
2021/12/04 16:40:29;;;;;;;16.70;8.23;;;;;;;;;;5056215;28;20045;-92
2021/12/04 16:43:07;;;;;;;59.38;11.02;;;;;;;;;;5058512;28;20099;-90
2021/12/04 16:45:36;;;;;;;34.28;9.38;;;;;;;;;;5073004;28;20072;-88
2021/12/04 16:48:07;;;;;;;15.20;6.55;;;;;;;;;;5056376;28;20040;-88
2021/12/04 16:58:29;;;;;;;12.85;5.85;;;;;;;;;;5065384;28;20089;-90
2021/12/04 17:00:55;;;;;;;17.23;7.80;;;;;;;;;;5057887;28;20169;-89
2021/12/04 17:03:22;;;;;;;26.83;8.02;;;;;;;;;;5057643;28;20096;-90
2021/12/04 17:05:48;;;;;;;15.77;7.30;;;;;;;;;;5057899;28;20069;-88
2021/12/04 17:08:14;;;;;;;15.90;4.82;;;;;;;;;;5051517;28;20085;-91
2021/12/04 17:10:41;;;;;;;14.73;7.40;;;;;;;;;;5045088;28;20563;-89
2021/12/04 17:13:07;;;;;;;13.98;7.15;;;;;;;;;;5058191;28;20051;-91
2021/12/04 17:15:34;;;;;;;14.18;5.40;;;;;;;;;;5051503;28;20044;-89
2021/12/04 17:18:02;;;;;;;15.43;5.57;;;;;;;;;;5057739;28;20051;-87
2021/12/04 17:20:28;;;;;;;18.50;6.97;;;;;;;;;;5050091;28;20036;-90
2021/12/04 17:22:55;;;;;;;33.35;8.82;;;;;;;;;;5064121;28;20104;-91
2021/12/04 17:25:22;;;;;;;14.80;4.22;;;;;;;;;;5070765;28;20067;-88
2021/12/04 17:27:48;;;;;;;61.97;15.98;;;;;;;;;;5102414;28;20173;-90
2021/12/04 17:30:16;;;;;;;66.30;14.40;;;;;;;;;;5063244;28;20048;-89
2021/12/04 17:32:42;;;;;;;28.65;9.18;;;;;;;;;;5057567;28;20124;-89
2021/12/04 17:35:10;;;;;;;41.90;10.18;;;;;;;;;;5053274;28;20066;-89
2021/12/04 17:37:37;;;;;;;49.90;14.63;;;;;;;;;;5076911;28;20068;-88
2021/12/04 17:40:06;;;;;;;61.30;15.45;;;;;;;;;;5054368;28;20056;-90
2021/12/04 17:42:35;;;;;;;63.65;17.20;;;;;;;;;;5088357;28;20040;-90
2021/12/04 17:45:02;;;;;;;42.97;11.90;;;;;;;;;;5075082;28;20575;-89
2021/12/04 17:47:31;;;;;;;65.07;19.05;;;;;;;;;;5059045;28;20101;-89
2021/12/04 17:49:58;;;;;;;67.85;18.95;;;;;;;;;;5054541;28;20075;-90
2021/12/04 17:52:27;;;;;;;68.80;18.60;;;;;;;;;;5063476;28;20034;-89
2021/12/04 17:54:53;;;;;;;86.03;19.48;;;;;;;;;;5062812;28;20033;-88
2021/12/04 17:57:19;;;;;;;69.60;16.90;;;;;;;;;;5060005;28;20066;-89
2021/12/04 17:59:47;;;;;;;76.72;18.70;;;;;;;;;;5056351;28;20037;-91
2021/12/04 18:02:17;;;;;;;62.72;17.75;;;;;;;;;;5047984;28;20040;-89